Аэропорт: Кызылорда. Кызылорда

ICAO: UAOO

METAR:
2021-01-24 17:00:00
UAOO 241700Z 06003MPS 9999 OVC016 M16/M18 Q1038 NOSIG RMK QFE766/1022
METAR:
2021-01-24 14:00:00
TAF UAOO 241400Z 2415/2424 07004MPS 9999 OVC020